»·PEaware :: UAL2260 KLAX-KSAN

UAL2260 :: KLAX-KSAN

FLIGHT INFORMATION

Flight Status: Arrived
Operator:
United Airlines
More flights by this operator :: More flights under this callsign
Pilot: Aaron F. (12391)
Aircraft: BOEING 737-300
(B733)
More flights by this aircraft type
Origin: KLAX Los Angeles Intl
United States
Destination: KSAN San Diego Intl-Lindbergh
United States
More flights between these airports :: More routes between these airports
Route: +LAXX1 MZB
File this flight plan on PilotEdge
Remarks: XPlane 11
Altitude:
(Current/Filed)
11,000ft
Speed:
(Current/Filed)
320kts
Departed: 11-Jan-19 06:54 PM
Arrived: 11-Jan-19 07:30 PM
Distance/Time
Traveled:
725nm/0:36
Distance/Time
To Go:
Arrived

Flight Plot

Page will automatically refresh every two minutes.

Flight plan parsing failed; only flown route is shown


Map Options




Map Legend


Flown Route
Filed Route
Departure Airport
Arrival Airport
Navaid (VOR, NDB)
Fix

Horizontal Profiles

Position Reports

Time Latitude Longitude Heading Altitude Ground
Speed
11-Jan-19 18:30 33.940053 -118.402297 38 119ft 0kts
11-Jan-19 18:31 33.940053 -118.402297 38 119ft 0kts
11-Jan-19 18:32 33.940053 -118.402297 38 119ft 0kts
11-Jan-19 18:33 33.940053 -118.402297 38 119ft 0kts
11-Jan-19 18:34 33.940053 -118.402297 38 119ft 0kts
11-Jan-19 18:35 33.940053 -118.402297 38 119ft 0kts
11-Jan-19 18:36 33.940053 -118.402297 38 119ft 0kts
11-Jan-19 18:37 33.940053 -118.402297 38 119ft 0kts
11-Jan-19 18:38 33.940053 -118.402297 38 119ft 0kts
11-Jan-19 18:39 33.940053 -118.402297 38 119ft 0kts
11-Jan-19 18:40 33.940053 -118.402297 38 119ft 0kts
11-Jan-19 18:41 33.940053 -118.402297 38 119ft 0kts
11-Jan-19 18:42 33.940053 -118.402297 38 119ft 0kts
11-Jan-19 18:43 33.939820 -118.402628 82 119ft 2kts
11-Jan-19 18:44 33.940109 -118.403069 177 119ft 1kts
11-Jan-19 18:45 33.940140 -118.403072 174 119ft 0kts
11-Jan-19 18:46 33.940140 -118.403072 174 119ft 0kts
11-Jan-19 18:47 33.940140 -118.403072 174 119ft 0kts
11-Jan-19 18:48 33.939857 -118.403035 173 119ft 3kts
11-Jan-19 18:49 33.938681 -118.400945 83 117ft 15kts
11-Jan-19 18:50 33.939333 -118.394626 82 108ft 20kts
11-Jan-19 18:51 33.940093 -118.387436 82 102ft 26kts
11-Jan-19 18:52 33.939768 -118.380743 264 99ft 18kts
11-Jan-19 18:53 33.934853 -118.418561 256 543ft 220kts
11-Jan-19 18:54 33.902124 -118.481031 229 3842ft 228kts
11-Jan-19 18:55 33.845733 -118.509550 181 5107ft 237kts
11-Jan-19 18:56 33.778831 -118.511844 181 7196ft 247kts
11-Jan-19 18:57 33.712671 -118.497275 129 9620ft 263kts
11-Jan-19 18:58 33.677264 -118.415859 121 11027ft 276kts
11-Jan-19 18:59 33.642209 -118.332905 122 10997ft 274kts
11-Jan-19 19:00 33.606729 -118.250914 122 11000ft 274kts
11-Jan-19 19:01 33.571105 -118.168766 122 10999ft 275kts
11-Jan-19 19:02 33.535349 -118.086504 122 11000ft 276kts
11-Jan-19 19:03 33.499367 -118.003981 122 11000ft 276kts
11-Jan-19 19:04 33.463294 -117.921426 122 11000ft 277kts
11-Jan-19 19:05 33.427223 -117.839024 122 11000ft 277kts
11-Jan-19 19:06 33.391098 -117.756689 122 11002ft 277kts
11-Jan-19 19:07 33.354993 -117.674592 122 11005ft 277kts
11-Jan-19 19:08 33.318798 -117.592483 122 11009ft 277kts
11-Jan-19 19:09 33.282653 -117.510430 122 11009ft 277kts
11-Jan-19 19:10 33.246361 -117.428343 123 11006ft 277kts
11-Jan-19 19:11 33.181816 -117.391268 165 11006ft 262kts
11-Jan-19 19:12 33.112454 -117.363367 163 10991ft 262kts
11-Jan-19 19:13 33.043545 -117.334435 164 10989ft 264kts
11-Jan-19 19:14 32.973509 -117.304935 164 10992ft 266kts
11-Jan-19 19:15 32.902753 -117.274485 164 10254ft 272kts
11-Jan-19 19:16 32.830900 -117.243943 164 8318ft 273kts
11-Jan-19 19:17 32.763813 -117.214816 146 6522ft 277kts
11-Jan-19 19:18 32.741985 -117.136376 86 5062ft 277kts
11-Jan-19 19:19 32.751289 -117.048707 100 5023ft 265kts
11-Jan-19 19:20 32.738854 -116.964342 101 4804ft 271kts
11-Jan-19 19:21 32.723719 -116.879559 116 3994ft 244kts
11-Jan-19 19:22 32.670854 -116.873613 245 4025ft 197kts
11-Jan-19 19:23 32.668866 -116.933527 282 3908ft 187kts
11-Jan-19 19:24 32.684813 -116.991421 287 2845ft 174kts
11-Jan-19 19:25 32.699289 -117.048650 282 2807ft 181kts
11-Jan-19 19:26 32.711182 -117.099194 282 1360ft 146kts
11-Jan-19 19:27 32.722587 -117.145373 283 650ft 147kts
11-Jan-19 19:28 32.733524 -117.189710 283 21ft 119kts
11-Jan-19 19:29 32.734837 -117.199087 246 17ft 2kts
11-Jan-19 19:36 45.586921 -122.593129 41 23ft 0kts

Navigation Log

Ident Type
Flight plan parsing failed, navigation log unavailable